createdAt,value
2022-09-10T00:02:20.670Z,3.30
2022-09-10T00:07:23.722Z,3.30
2022-09-10T00:12:26.911Z,3.90
2022-09-10T00:17:32.693Z,3.10
2022-09-10T00:22:35.931Z,3.80
2022-09-10T00:27:40.428Z,3.50
2022-09-10T00:32:43.932Z,3.80
2022-09-10T00:37:47.207Z,4.10
2022-09-10T00:42:50.730Z,3.60
2022-09-10T00:47:59.449Z,3.50
2022-09-10T00:53:07.311Z,3.70
2022-09-10T00:58:14.576Z,4.00
2022-09-10T01:03:24.886Z,3.40
2022-09-10T01:08:28.804Z,3.20
2022-09-10T01:13:49.583Z,3.10
2022-09-10T01:19:07.704Z,3.50
2022-09-10T01:24:35.356Z,3.40
2022-09-10T01:29:58.810Z,3.80
2022-09-10T01:35:15.773Z,3.30
2022-09-10T01:40:19.680Z,3.40
2022-09-10T01:45:23.760Z,3.30
2022-09-10T01:50:30.437Z,3.40
2022-09-10T01:55:48.739Z,4.10
2022-09-10T02:01:24.305Z,3.50
2022-09-10T02:06:30.145Z,3.40
2022-09-10T02:11:44.760Z,2.90
2022-09-10T02:16:59.044Z,3.00
2022-09-10T02:22:02.539Z,3.00
2022-09-10T02:27:06.777Z,3.70
2022-09-10T02:32:10.301Z,3.30
2022-09-10T02:37:13.491Z,3.70
2022-09-10T02:42:18.431Z,3.10
2022-09-10T02:47:22.096Z,2.70
2022-09-10T02:52:26.307Z,2.80
2022-09-10T02:57:30.014Z,3.50
2022-09-10T03:02:33.878Z,4.00
2022-09-10T03:07:36.968Z,3.50
2022-09-10T03:12:41.132Z,4.00
2022-09-10T03:17:44.232Z,4.20
2022-09-10T03:22:47.819Z,4.30
2022-09-10T03:27:51.098Z,3.50
2022-09-10T03:32:54.983Z,4.10
2022-09-10T03:37:58.111Z,4.50
2022-09-10T03:43:01.467Z,4.40
2022-09-10T03:48:04.767Z,4.00
2022-09-10T03:53:08.519Z,3.30
2022-09-10T03:58:11.949Z,3.60
2022-09-10T04:03:15.173Z,4.00
2022-09-10T04:08:18.539Z,4.40
2022-09-10T04:13:22.736Z,3.80
2022-09-10T04:18:27.710Z,4.60
2022-09-10T04:23:30.800Z,3.80
2022-09-10T04:28:33.930Z,4.50
2022-09-10T04:33:38.446Z,4.20
2022-09-10T04:38:41.917Z,3.10
2022-09-10T04:43:46.364Z,3.60
2022-09-10T04:48:49.579Z,3.70
2022-09-10T04:53:54.304Z,4.20
2022-09-10T04:58:57.683Z,4.90
2022-09-10T05:04:00.954Z,4.90
2022-09-10T05:09:04.170Z,4.40
2022-09-10T05:14:07.813Z,5.00
2022-09-10T05:19:18.241Z,4.70
2022-09-10T05:24:21.584Z,4.90
2022-09-10T05:29:24.738Z,4.80
2022-09-10T05:34:27.911Z,5.20
2022-09-10T05:39:31.631Z,4.40
2022-09-10T05:44:34.769Z,4.80
2022-09-10T05:49:37.938Z,4.90
2022-09-10T05:54:41.574Z,4.80
2022-09-10T05:59:46.455Z,5.20
2022-09-10T06:04:49.949Z,4.00
2022-09-10T06:09:53.111Z,5.80
2022-09-10T06:14:56.163Z,4.80
2022-09-10T06:19:59.279Z,5.10
2022-09-10T06:25:02.423Z,4.30
2022-09-10T06:30:06.175Z,4.90
2022-09-10T06:35:09.854Z,4.80
2022-09-10T06:40:13.580Z,3.90
2022-09-10T06:45:16.809Z,3.80
2022-09-10T06:50:19.913Z,4.90
2022-09-10T06:55:23.100Z,5.00
2022-09-10T07:00:26.458Z,4.90
2022-09-10T07:05:33.574Z,5.60
2022-09-10T07:10:37.581Z,5.50
2022-09-10T07:15:47.656Z,4.90
2022-09-10T07:20:51.592Z,4.10
2022-09-10T07:26:08.340Z,4.70
2022-09-10T07:31:19.735Z,4.10
2022-09-10T07:36:23.016Z,3.80
2022-09-10T07:41:30.432Z,4.10
2022-09-10T07:46:33.592Z,4.50
2022-09-10T07:51:36.801Z,4.00
2022-09-10T07:56:39.889Z,3.80
2022-09-10T08:01:43.131Z,4.40
2022-09-10T08:06:46.983Z,5.00
2022-09-10T08:11:52.183Z,5.00
2022-09-10T08:16:55.337Z,4.70
2022-09-10T08:21:58.519Z,4.70
2022-09-10T08:27:01.750Z,4.70
2022-09-10T08:32:05.472Z,4.40
2022-09-10T08:37:08.654Z,4.60
2022-09-10T08:42:49.594Z,4.70
2022-09-10T08:48:08.678Z,4.50
2022-09-10T08:53:18.546Z,4.70
2022-09-10T08:58:52.291Z,3.50
2022-09-10T09:03:58.090Z,4.20
2022-09-10T09:09:04.006Z,4.00
2022-09-10T09:14:26.548Z,3.70
2022-09-10T09:20:04.982Z,2.70
2022-09-10T09:25:33.903Z,4.00
2022-09-10T09:30:49.795Z,3.20
2022-09-10T09:36:00.989Z,3.50
2022-09-10T09:41:31.229Z,4.00
2022-09-10T09:46:34.850Z,4.60
2022-09-10T09:51:38.543Z,4.80
2022-09-10T09:56:46.647Z,4.90
2022-09-10T10:01:51.969Z,4.40
2022-09-10T10:06:57.987Z,5.10
2022-09-10T10:12:06.266Z,5.30
2022-09-10T10:17:33.749Z,5.50
2022-09-10T10:22:39.547Z,5.00
2022-09-10T10:27:45.533Z,5.90
2022-09-10T10:33:00.352Z,5.60
2022-09-10T10:38:31.364Z,6.50
2022-09-10T10:43:55.855Z,5.90
2022-09-10T10:49:23.681Z,6.30
2022-09-10T10:54:59.381Z,5.90
2022-09-10T11:00:13.228Z,5.60
2022-09-10T11:05:26.019Z,7.20
2022-09-10T11:10:39.744Z,6.40
2022-09-10T11:15:55.566Z,6.70
2022-09-10T11:21:16.820Z,9.60
2022-09-10T11:26:38.356Z,7.70
2022-09-10T11:31:56.828Z,9.10
2022-09-10T11:37:04.368Z,8.10
2022-09-10T11:42:52.747Z,7.00
2022-09-10T11:48:06.142Z,6.40
2022-09-10T11:53:15.287Z,6.60
2022-09-10T11:58:44.023Z,5.80
2022-09-10T12:04:39.728Z,7.50
2022-09-10T12:09:55.649Z,7.40
2022-09-10T12:14:59.868Z,8.30
2022-09-10T12:20:07.428Z,7.20
2022-09-10T12:25:16.557Z,7.10
2022-09-10T12:30:27.673Z,6.50
2022-09-10T12:35:31.455Z,7.00
2022-09-10T12:40:34.555Z,6.20
2022-09-10T12:46:09.098Z,7.10
2022-09-10T12:51:37.177Z,6.50
2022-09-10T12:56:40.713Z,6.30
2022-09-10T13:01:48.246Z,5.30
2022-09-10T13:06:55.041Z,6.50
2022-09-10T13:12:04.393Z,6.60
2022-09-10T13:18:00.015Z,6.70
2022-09-10T13:23:04.398Z,7.50
2022-09-10T13:28:29.366Z,8.50
2022-09-10T13:33:40.586Z,7.60
2022-09-10T13:39:05.741Z,7.60
2022-09-10T13:44:31.715Z,7.10
2022-09-10T13:49:57.802Z,6.90
2022-09-10T13:55:04.436Z,7.60
2022-09-10T14:00:20.240Z,4.80
2022-09-10T14:05:41.095Z,9.60
2022-09-10T14:11:08.109Z,8.20
2022-09-10T14:16:17.012Z,8.30
2022-09-10T14:21:27.306Z,8.80
2022-09-10T14:26:33.961Z,8.50
2022-09-10T14:31:37.896Z,8.40
2022-09-10T14:36:41.476Z,7.80
2022-09-10T14:41:45.591Z,10.20
2022-09-10T14:47:13.239Z,7.80
2022-09-10T14:52:16.633Z,8.60
2022-09-10T14:57:20.282Z,9.70
2022-09-10T15:02:27.769Z,10.30
2022-09-10T15:07:31.618Z,9.90
2022-09-10T15:12:36.868Z,10.70
2022-09-10T15:17:41.503Z,10.40
2022-09-10T15:22:45.168Z,9.60
2022-09-10T15:27:48.339Z,10.20
2022-09-10T15:32:54.633Z,10.40
2022-09-10T15:37:58.349Z,11.30
2022-09-10T15:43:02.012Z,11.40
2022-09-10T15:48:05.687Z,10.60
2022-09-10T15:53:12.016Z,10.50
2022-09-10T15:58:16.464Z,9.20
2022-09-10T16:03:20.859Z,10.30
2022-09-10T16:08:24.364Z,10.40
2022-09-10T16:13:27.559Z,8.40
2022-09-10T16:18:33.162Z,8.50
2022-09-10T16:23:41.617Z,12.60
2022-09-10T16:29:02.308Z,10.80
2022-09-10T16:34:09.265Z,11.00
2022-09-10T16:39:14.182Z,12.20
2022-09-10T16:44:18.907Z,11.30
2022-09-10T16:49:22.496Z,13.70
2022-09-10T16:54:27.001Z,12.20
2022-09-10T16:59:30.058Z,12.40
2022-09-10T17:04:33.325Z,12.40
2022-09-10T17:09:36.466Z,11.30
2022-09-10T17:14:39.782Z,13.40
2022-09-10T17:19:43.279Z,12.50
2022-09-10T17:24:49.555Z,13.80
2022-09-10T17:29:53.171Z,13.70
2022-09-10T17:34:56.317Z,12.60
2022-09-10T17:39:59.533Z,12.80
2022-09-10T17:45:02.733Z,11.50
2022-09-10T17:50:06.350Z,10.90
2022-09-10T17:55:09.731Z,12.70
2022-09-10T18:00:14.414Z,11.40
2022-09-10T18:05:19.040Z,10.10
2022-09-10T18:10:23.389Z,10.40
2022-09-10T18:15:27.871Z,11.00
2022-09-10T18:20:31.063Z,11.50
2022-09-10T18:25:34.487Z,11.20
2022-09-10T18:30:38.489Z,11.80
2022-09-10T18:35:41.633Z,11.90
2022-09-10T18:40:44.781Z,12.90
2022-09-10T18:45:48.035Z,11.90
2022-09-10T18:50:51.659Z,12.90
2022-09-10T18:55:55.020Z,12.80
2022-09-10T19:01:12.016Z,13.10
2022-09-10T19:06:19.175Z,12.40
2022-09-10T19:11:25.181Z,12.60
2022-09-10T19:16:31.900Z,13.20
2022-09-10T19:21:38.652Z,14.20
2022-09-10T19:26:42.749Z,14.40
2022-09-10T19:31:47.452Z,12.90
2022-09-10T19:36:51.320Z,12.90
2022-09-10T19:41:54.462Z,8.50
2022-09-10T19:46:58.913Z,9.70
2022-09-10T19:52:03.792Z,9.10
2022-09-10T19:57:07.621Z,9.30
2022-09-10T20:02:10.916Z,9.00
2022-09-10T20:07:14.295Z,8.80
2022-09-10T20:12:17.470Z,10.00
2022-09-10T20:17:21.004Z,10.00
2022-09-10T20:22:25.232Z,10.20
2022-09-10T20:27:28.544Z,9.80
2022-09-10T20:32:32.036Z,11.10
2022-09-10T20:37:35.450Z,11.20
2022-09-10T20:42:39.504Z,11.30
2022-09-10T20:47:45.678Z,10.40
2022-09-10T20:52:49.477Z,9.70
2022-09-10T20:57:52.906Z,11.10
2022-09-10T21:02:56.093Z,11.40
2022-09-10T21:07:59.352Z,11.80
2022-09-10T21:13:02.646Z,8.30
2022-09-10T21:18:05.955Z,12.70
2022-09-10T21:23:09.178Z,12.80
2022-09-10T21:28:12.323Z,12.80
2022-09-10T21:33:16.991Z,13.30
2022-09-10T21:38:22.168Z,13.10
2022-09-10T21:43:27.440Z,12.10
2022-09-10T21:48:37.534Z,12.20
2022-09-10T21:53:42.764Z,11.60
2022-09-10T21:58:47.311Z,11.90
2022-09-10T22:03:55.974Z,11.50
2022-09-10T22:09:08.101Z,11.60
2022-09-10T22:14:17.963Z,11.20
2022-09-10T22:19:25.333Z,11.70
2022-09-10T22:24:29.976Z,9.80
2022-09-10T22:29:35.050Z,10.80
2022-09-10T22:34:39.395Z,9.00
2022-09-10T22:39:42.699Z,10.00
2022-09-10T22:44:46.272Z,10.10
2022-09-10T22:49:50.756Z,9.50
2022-09-10T22:54:56.976Z,10.70
2022-09-10T23:00:00.228Z,9.40
2022-09-10T23:05:04.803Z,9.90
2022-09-10T23:10:08.222Z,8.60
2022-09-10T23:15:11.758Z,9.50
2022-09-10T23:20:15.212Z,9.70
2022-09-10T23:25:19.617Z,9.40
2022-09-10T23:30:24.683Z,11.10
2022-09-10T23:35:28.017Z,11.10
2022-09-10T23:40:34.201Z,11.60
2022-09-10T23:45:37.914Z,12.20
2022-09-10T23:50:43.000Z,10.80
2022-09-10T23:55:46.411Z,12.00
